Flight Track Log - Related Links

Times and Time Zones

All times are in EDT time to prevent confusion due to time zone crossing. See the GJS3707 flight status page for this flight to view local times or setup timezone preferences in your user account.

Time Position Orientation Groundspeed Altitude Reporting Facility
EDT Latitude Longitude Course Direction KTS MPH feet Rate Location/Type
Thu 04:23:34 PM 43.5867 -116.2967 81° East 181 208 5,000  Level Salt Lake Center
Thu 04:24:36 PM 43.6264 -116.3594 311° West 243 280 6,700 2,129 Climbing Salt Lake Center
Thu 04:25:00 PM 43.6329 -115.7195 79° East  Level FlightAware Approximate
Thu 04:25:38 PM 43.6861 -116.3083 32° Northeast 271 312 9,400  Level Salt Lake Center
Thu 04:26:00 PM 43.6590 -115.5503 78° East  Level FlightAware Approximate
Thu 04:26:40 PM 43.6953 -116.1847 84° East 292 336 11,400  Level Salt Lake Center
Thu 04:27:00 PM 43.6777 -115.3793 83° East  Level FlightAware Approximate
Thu 04:27:42 PM 43.7094 -116.0647 81° East 326 375 13,400  Level Salt Lake Center
Thu 04:28:00 PM 43.7023 -115.2130 81° East  Level FlightAware Approximate
Thu 04:28:43 PM 43.7256 -115.9222 81° East 336 387 16,000  Level Salt Lake Center
Thu 04:29:45 PM 43.7389 -115.7983 81° East 339 390 17,700 1,452 Climbing Salt Lake Center
Thu 04:30:47 PM 43.7539 -115.6667 81° East 356 410 19,000 1,403 Climbing Salt Lake Center
Thu 04:31:49 PM 43.7728 -115.5058 81° East 378 435 20,600 1,463 Climbing Salt Lake Center
Thu 04:32:50 PM 43.7881 -115.3639 81° East 390 449 22,000 1,415 Climbing Salt Lake Center
Thu 04:33:52 PM 43.8078 -115.1928 81° East 402 463 23,500 1,258 Climbing Salt Lake Center
Thu 04:34:54 PM 43.8231 -115.0469 82° East 402 463 24,600 1,065 Climbing Salt Lake Center
Thu 04:35:56 PM 43.8414 -114.8719 82° East 412 474 25,700 976 Climbing Salt Lake Center
Thu 04:36:57 PM 43.8575 -114.7169 82° East 423 487 26,600 1,024 Climbing Salt Lake Center
Thu 04:37:59 PM 43.8769 -114.5317 82° East 434 499 27,800 1,016 Climbing Salt Lake Center
Thu 04:39:01 PM 43.8936 -114.3708 82° East 440 506 28,700 1,016 Climbing Salt Lake Center
Thu 04:40:03 PM 43.9136 -114.1803 82° East 450 518 29,900 1,016 Climbing Salt Lake Center
Thu 04:41:05 PM 43.9292 -114.0158 82° East 450 518 30,800 919 Climbing Salt Lake Center
Thu 04:42:07 PM 43.9472 -113.8372 82° East 450 518 31,800 829 Climbing Salt Lake Center
Thu 04:43:08 PM 43.9633 -113.6703 82° East 455 524 32,500 732 Climbing Salt Lake Center
Thu 04:44:10 PM 43.9786 -113.4717 84° East 463 533 33,300 677 Climbing Salt Lake Center
Thu 04:45:12 PM 43.9944 -113.2994 83° East 469 540 33,900 677 Climbing Salt Lake Center
Thu 04:46:14 PM 44.0119 -113.0969 83° East 474 545 34,700 537 Climbing Salt Lake Center
Thu 04:47:15 PM 44.0289 -112.9219 82° East 477 549 35,000 146 Climbing Salt Lake Center
Thu 04:48:17 PM 44.0461 -112.7108 83° East 492 566 35,000  Level Salt Lake Center
Thu 04:49:19 PM 44.0631 -112.5228 83° East 510 587 35,000  Level Salt Lake Center
Thu 04:50:21 PM 44.0806 -112.2986 84° East 523 602 35,000  Level Salt Lake Center
Thu 04:51:23 PM 44.0900 -112.1089 86° East 520 598 35,000  Level Salt Lake Center
Thu 04:52:24 PM 44.0911 -111.9211 89° East 513 590 35,000  Level Salt Lake Center
Thu 04:53:26 PM 44.0933 -111.7006 89° East 513 590 35,000  Level Salt Lake Center
Thu 04:54:28 PM 44.0928 -111.5111 90° East 515 593 35,000  Level Salt Lake Center
Thu 04:55:29 PM 44.0942 -111.2878 89° East 521 600 35,000  Level Salt Lake Center
Thu 04:56:31 PM 44.0939 -111.0961 90° East 523 602 35,000  Level Salt Lake Center
Thu 04:57:33 PM 44.0950 -110.8714 90° East 524 603 35,000  Level Salt Lake Center
Thu 04:58:35 PM 44.0936 -110.6778 91° East 526 605 35,000  Level Salt Lake Center
Thu 04:59:36 PM 44.0936 -110.4531 90° East 524 603 35,000  Level Salt Lake Center
Thu 05:00:38 PM 44.0914 -110.2606 91° East 523 602 35,000  Level Salt Lake Center
Thu 05:01:40 PM 44.0897 -110.0361 91° East 522 601 35,000  Level Salt Lake Center
Thu 05:02:42 PM 44.0872 -109.8408 91° East 527 606 35,000  Level Salt Lake Center
Thu 05:03:43 PM 44.0850 -109.6153 91° East 524 603 35,000  Level Salt Lake Center
Thu 05:04:45 PM 44.0819 -109.4136 91° East 523 602 35,000  Level Salt Lake Center
Thu 05:05:47 PM 44.0792 -109.2208 91° East 522 601 35,000  Level Salt Lake Center
Thu 05:06:49 PM 44.0750 -108.9967 91° East 521 600 35,000  Level Salt Lake Center
Thu 05:07:50 PM 44.0711 -108.8056 92° East 519 597 35,000  Level Salt Lake Center
Thu 05:08:52 PM 44.0664 -108.5833 92° East 518 596 35,000  Level Salt Lake Center
Thu 05:09:54 PM 44.0622 -108.3947 92° East 513 590 35,000  Level Salt Lake Center
Thu 05:10:56 PM 44.0578 -108.2056 92° East 514 592 35,000  Level Salt Lake Center
Thu 05:11:57 PM 44.0511 -107.9853 92° East 514 592 35,000  Level Salt Lake Center
Thu 05:12:59 PM 44.0467 -107.7992 92° East 508 585 35,000  Level Salt Lake Center
Thu 05:14:01 PM 44.0403 -107.5803 92° East 510 587 35,000  Level Salt Lake Center
Thu 05:15:03 PM 44.0342 -107.3914 93° East 513 590 35,000  Level Salt Lake Center
Thu 05:16:04 PM 44.0272 -107.1717 92° East 513 590 35,000  Level Salt Lake Center
Thu 05:17:02 PM 44.0208 -106.9833 93° East 508 585 35,000  Level Denver Center
Thu 05:18:04 PM 44.0139 -106.7872 93° East 511 588 35,000  Level Denver Center
Thu 05:19:06 PM 44.0069 -106.5978 93° East 512 589 35,000  Level Denver Center
Thu 05:20:08 PM 43.9994 -106.3789 93° East 509 586 35,000  Level Denver Center
Thu 05:21:10 PM 44.0028 -106.1886 89° East 513 590 35,000  Level Denver Center
Thu 05:22:12 PM 44.0033 -105.9681 90° East 512 589 35,000 48 Level Denver Center
Thu 05:23:14 PM 44.0047 -105.7800 89° East 509 586 35,100  Climbing Denver Center
Thu 05:24:16 PM 44.0056 -105.5625 90° East 505 581 35,000 -48 Descending Denver Center
Thu 05:25:18 PM 44.0050 -105.3778 90° East 502 578 35,000  Level Denver Center
Thu 05:26:20 PM 44.0036 -105.1639 90° East 497 572 35,000  Level Denver Center
Thu 05:27:22 PM 44.0028 -104.9794 90° East 497 572 35,000  Level Denver Center
Thu 05:28:24 PM 44.0019 -104.7647 90° East 497 572 35,000  Level Denver Center
Thu 05:29:26 PM 43.9997 -104.5803 91° East 497 572 35,000  Level Denver Center
Thu 05:30:28 PM 43.9986 -104.3925 90° East 503 579 35,000  Level Denver Center
Thu 05:31:30 PM 43.9967 -104.1761 91° East 502 578 35,000  Level Denver Center
Thu 05:32:32 PM 43.9931 -103.9897 91° East 504 580 35,000  Level Denver Center
Thu 05:33:34 PM 43.9897 -103.7722 91° East 504 580 35,000  Level Denver Center
Thu 05:34:36 PM 43.9875 -103.5850 91° East 505 581 35,000  Level Denver Center
Thu 05:35:38 PM 43.9836 -103.3669 91° East 506 582 35,000  Level Denver Center
Thu 05:36:40 PM 43.9811 -103.1828 91° East 501 577 35,000  Level Denver Center
Thu 05:37:42 PM 43.9767 -102.9642 92° East 505 581 35,000  Level Denver Center
Thu 05:38:44 PM 43.9703 -102.7664 93° East 507 583 35,000  Level Denver Center
Thu 05:39:47 PM 43.9631 -102.5711 93° East 507 583 35,000  Level Denver Center
Thu 05:40:49 PM 43.9572 -102.3756 92° East 509 586 35,000  Level Denver Center
Thu 05:41:51 PM 43.9486 -102.1817 93° East 507 583 35,000  Level Denver Center
Thu 05:42:53 PM 43.9417 -101.9878 93° East 506 582 35,000  Level Denver Center
Thu 05:43:55 PM 43.9331 -101.7547 93° East 506 582 35,000  Level Denver Center
Thu 05:44:57 PM 43.9300 -101.5678 91° East 497 572 35,000  Level Denver Center
Thu 05:45:59 PM 43.9231 -101.3761 93° East 500 575 35,000  Level Denver Center
Thu 05:47:01 PM 43.9156 -101.1833 93° East 502 578 35,000  Level Denver Center
Thu 05:48:08 PM 43.9058 -100.9544 93° East 498 573 35,000  Level Minneapolis Center
Thu 05:49:10 PM 43.8975 -100.7600 93° East 504 580 35,000  Level Minneapolis Center
Thu 05:50:13 PM 43.8889 -100.5675 93° East 503 579 35,000  Level Minneapolis Center
Thu 05:51:15 PM 43.8783 -100.3719 94° East 507 583 35,000  Level Minneapolis Center
Thu 05:52:17 PM 43.8700 -100.1789 93° East 509 586 35,000  Level Minneapolis Center
Thu 05:53:19 PM 43.8586 -99.9494 94° East 505 581 35,000  Level Minneapolis Center
Thu 05:54:21 PM 43.8489 -99.7567 94° East 504 580 35,000  Level Minneapolis Center
Thu 05:55:23 PM 43.8378 -99.5614 94° East 506 582 35,000  Level Minneapolis Center
Thu 05:56:25 PM 43.8281 -99.3672 94° East 508 585 35,000  Level Minneapolis Center
Thu 05:57:27 PM 43.8161 -99.1803 95° East 500 575 35,000  Level Minneapolis Center
Thu 05:58:29 PM 43.8025 -98.9464 95° East 508 585 35,000  Level Minneapolis Center
Thu 05:59:31 PM 43.7908 -98.7522 95° East 509 586 35,000  Level Minneapolis Center
Thu 06:00:34 PM 43.7775 -98.5581 95° East 509 586 35,000  Level Minneapolis Center
Thu 06:01:36 PM 43.7644 -98.3633 95° East 510 587 35,000  Level Minneapolis Center
Thu 06:02:38 PM 43.7517 -98.1689 95° East 510 587 35,000  Level Minneapolis Center
Thu 06:03:40 PM 43.7394 -97.9747 95° East 509 586 35,000  Level Minneapolis Center
Thu 06:04:42 PM 43.7225 -97.7419 96° East 509 586 35,000  Level Minneapolis Center
Thu 06:05:44 PM 43.7086 -97.5472 96° East 511 588 35,000  Level Minneapolis Center
Thu 06:06:46 PM 43.6944 -97.3525 96° East 512 589 35,000  Level Minneapolis Center
Thu 06:07:48 PM 43.6792 -97.1569 96° East 514 592 35,000  Level Minneapolis Center
Thu 06:08:50 PM 43.6642 -96.9628 96° East 514 592 35,000  Level Minneapolis Center
Thu 06:09:52 PM 43.6431 -96.7306 97° East 511 588 35,000  Level Minneapolis Center
Thu 06:10:54 PM 43.6131 -96.5375 102° East 517 595 35,000  Level Minneapolis Center
Thu 06:11:56 PM 43.5858 -96.3436 101° East 520 598 35,000  Level Minneapolis Center
Thu 06:12:59 PM 43.5561 -96.1503 102° East 520 598 35,000  Level Minneapolis Center
Thu 06:14:01 PM 43.5281 -95.9556 101° East 522 601 35,000  Level Minneapolis Center
Thu 06:15:03 PM 43.4911 -95.7225 102° East 524 603 35,000  Level Minneapolis Center
Thu 06:16:05 PM 43.4614 -95.5283 102° East 522 601 35,000  Level Minneapolis Center
Thu 06:17:07 PM 43.4303 -95.3317 102° East 527 606 35,000  Level Minneapolis Center
Thu 06:18:09 PM 43.3997 -95.1356 102° East 529 609 35,000  Level Minneapolis Center
Thu 06:19:11 PM 43.3672 -94.9400 103° East 528 608 35,000  Level Minneapolis Center
Thu 06:20:13 PM 43.3283 -94.7058 103° East 527 606 35,000  Level Minneapolis Center
Thu 06:21:15 PM 43.2972 -94.5056 102° East 536 617 35,000  Level Minneapolis Center
Thu 06:22:17 PM 43.2633 -94.3089 103° East 533 613 35,000  Level Minneapolis Center
Thu 06:23:20 PM 43.2275 -94.0961 103° East 530 610 35,000  Level Minneapolis Center
Thu 06:24:22 PM 43.1944 -93.9044 103° East 524 603 35,000  Level Minneapolis Center
Thu 06:25:24 PM 43.1611 -93.7100 103° East 527 606 35,000  Level Minneapolis Center
Thu 06:26:26 PM 43.1272 -93.5156 103° East 529 609 35,000  Level Minneapolis Center
Thu 06:27:28 PM 43.0939 -93.3222 103° East 528 608 35,000  Level Minneapolis Center
Thu 06:28:30 PM 43.0789 -93.0853 95° East 525 604 35,000  Level Minneapolis Center
Thu 06:29:32 PM 43.0656 -92.8872 95° East 527 606 35,000  Level Minneapolis Center
Thu 06:30:34 PM 43.0517 -92.6892 95° East 527 606 35,000  Level Minneapolis Center
Thu 06:31:32 PM 43.0347 -92.4914 97° East 528 608 35,000 -300 Level Chicago Center
Thu 06:32:34 PM 43.0222 -92.2914 95° East 532 612 34,400 -774 Descending Chicago Center
Thu 06:33:36 PM 43.0069 -92.0953 96° East 525 604 33,400 -968 Descending Chicago Center
Thu 06:34:38 PM 42.9928 -91.8981 96° East 522 601 32,400 -968 Descending Chicago Center
Thu 06:35:40 PM 42.9778 -91.6983 96° East 525 604 31,400 -672 Descending Chicago Center
Thu 06:36:43 PM 42.9597 -91.4575 96° East 525 604 31,000 -528 Descending Chicago Center
Thu 06:37:45 PM 42.9436 -91.2664 97° East 508 585 30,300 -968 Descending Chicago Center
Thu 06:38:47 PM 42.9300 -91.0939 96° East 468 539 29,000 -677 Descending Chicago Center
Thu 06:39:49 PM 42.9153 -90.9225 97° East 457 526 28,900 -532 Descending Chicago Center
Thu 06:40:51 PM 42.8997 -90.7469 97° East 468 539 27,900 -968 Descending Chicago Center
Thu 06:41:53 PM 42.8842 -90.5783 97° East 451 519 26,900 -1,065 Descending Chicago Center
Thu 06:42:55 PM 42.8656 -90.3789 97° East 447 514 25,700 -1,065 Descending Chicago Center
Thu 06:43:57 PM 42.8522 -90.2164 96° East 438 504 24,700 -823 Descending Chicago Center
Thu 06:44:59 PM 42.8294 -90.0597 101° East 424 488 24,000 -726 Descending Chicago Center
Thu 06:46:01 PM 42.7847 -89.8928 110° East 427 491 23,200 -1,104 Descending Chicago Center
Thu 06:47:04 PM 42.7364 -89.7272 112° Southeast 466 536 21,700 -1,536 Descending Chicago Center
Thu 06:48:06 PM 42.6883 -89.5594 111° Southeast 475 547 20,000 -1,839 Descending Chicago Center
Thu 06:49:08 PM 42.6367 -89.3786 111° Southeast 443 510 17,900 -1,790 Descending Chicago Center
Thu 06:50:10 PM 42.5939 -89.2289 111° Southeast 430 495 16,300 -1,597 Descending Chicago Center
Thu 06:51:12 PM 42.5528 -89.0894 112° Southeast 403 464 14,600 -1,597 Descending Chicago Center
Thu 06:52:14 PM 42.5150 -88.9628 112° Southeast 369 425 13,000 -1,452 Descending Chicago Center
Thu 06:53:16 PM 42.4778 -88.8406 112° Southeast 353 406 11,600 -1,452 Descending Chicago Center
Thu 06:54:18 PM 42.4383 -88.7100 112° Southeast 330 380 10,000 -1,248 Descending Chicago Center
Thu 06:55:21 PM 42.4086 -88.6100 112° Southeast 302 348 9,000 -480 Descending Chicago Center
Thu 06:56:23 PM 42.3775 -88.5100 113° Southeast 291 335 9,000  Level Chicago Center
Thu 06:57:25 PM 42.3225 -88.4292 133° Southeast 293 337 9,000 -484 Level Chicago Center
Thu 06:58:27 PM 42.2375 -88.4239 177° South 305 351 8,000 -968 Descending Chicago Center
Thu 06:59:29 PM 42.1750 -88.4958 220° Southwest 301 346 7,000 -484 Descending Chicago Center
Thu 07:00:31 PM 42.0983 -88.4992 182° South 291 335 7,000  Level Chicago Center
Thu 07:01:33 PM 42.0183 -88.4933 177° South 290 334 7,000 -48 Level Chicago Center
Thu 07:02:35 PM 41.9514 -88.4589 159° South 223 257 6,900 -484 Descending Chicago Center
Thu 07:03:37 PM 41.9656 -88.3978 73° East 173 199 6,000 -435 Descending Chicago Center
Thu 07:04:39 PM 41.9697 -88.3289 85° East 180 207 6,000 -96 Level Chicago Center
Thu 07:05:42 PM 41.9661 -88.2606 94° East 182 209 5,800 -720 Descending Chicago Center
Thu 07:06:44 PM 41.9678 -88.1925 88° East 184 212 4,500 -1,180 Descending Chicago Center
Thu 07:07:44 PM 41.9667 -88.1167 91° East 182 209 3,400 -1,050 Descending Chicago TRACON
Thu 07:08:44 PM 41.9667 -88.0500 90° East 176 203 2,400 -1,000 Descending Chicago TRACON

Login

Don't have an account? Register now (free) for customized features, flight alerts, and more!